Weather at Cluny Airport

Public forecast

Using degrees Celsius for public forecast. Weather courtesy of forecast.io.

Closest aviation weather report (METAR) to Cluny Airport

Closest report is Birdsville Airport, 84.2 nm (155.9 km) S. Retrieved 2021/06/21 09:00 UTC (9 minutes ago):

YBDV 210900Z AUTO 12005KT //// // ////// 16/02 Q1020

Closest aviation forecast (TAF) to Cluny Airport

Closest forecast is Mount Isa Airport, 231.4 nm (428.6 km) N. Retrieved 2021/06/21 06:03 UTC (3 hours ago):

TAF TAF YBMA 210406Z 2106/2118 14006KT CAVOK